Time;durP1;ratioP1;P1;durP2;ratioP2;P2;SDS_P1;SDS_P2;PMS_P1;PMS_P2;Temp;Humidity;BMP_temperature;BMP_pressure;BME280_temperature;BME280_humidity;BME280_pressure;Samples;Min_cycle;Max_cycle;Signal;HPM_P1;HPM_P2
2021/11/05 00:03:00;;;;;;;8.83;8.03;;;8.70;99.90;;;;;;6203178;28;20473;-66
2021/11/05 00:06:03;;;;;;;6.10;5.50;;;8.70;99.90;;;;;;6202781;28;20936;-66
2021/11/05 00:09:07;;;;;;;6.33;5.77;;;8.70;99.90;;;;;;6202922;28;20483;-68
2021/11/05 00:12:11;;;;;;;6.03;5.43;;;8.70;99.90;;;;;;6203101;28;20472;-67
2021/11/05 00:15:14;;;;;;;5.87;5.37;;;8.70;99.90;;;;;;6202962;28;20481;-69
2021/11/05 00:18:19;;;;;;;5.30;4.80;;;8.70;99.90;;;;;;6202672;28;20484;-67
2021/11/05 00:21:22;;;;;;;5.77;3.80;;;8.70;99.90;;;;;;6202327;28;20492;-67
2021/11/05 00:24:25;;;;;;;5.60;3.60;;;8.70;99.90;;;;;;6203070;28;20480;-68
2021/11/05 00:27:28;;;;;;;3.10;2.80;;;8.70;99.90;;;;;;6202457;28;20472;-68
2021/11/05 00:30:32;;;;;;;3.70;3.10;;;8.60;99.90;;;;;;6202219;28;20810;-69
2021/11/05 00:33:36;;;;;;;8.23;3.57;;;8.60;99.90;;;;;;6201183;28;20832;-69
2021/11/05 00:36:39;;;;;;;3.57;3.27;;;8.60;99.90;;;;;;6200858;28;20492;-70
2021/11/05 00:39:43;;;;;;;3.83;2.90;;;8.50;99.90;;;;;;6201351;28;20486;-69
2021/11/05 00:42:46;;;;;;;3.23;2.97;;;8.50;99.90;;;;;;6200000;28;21006;-69
2021/11/05 00:45:49;;;;;;;3.23;2.93;;;8.50;99.90;;;;;;6201162;28;20491;-69
2021/11/05 00:48:54;;;;;;;7.50;3.90;;;8.50;99.90;;;;;;6191618;28;20473;-69
2021/11/05 00:51:57;;;;;;;2.90;2.70;;;8.50;99.90;;;;;;6201521;28;20880;-68
2021/11/05 00:55:00;;;;;;;4.50;3.17;;;8.50;99.90;;;;;;6200281;28;20468;-68
2021/11/05 00:58:03;;;;;;;3.13;2.83;;;8.50;99.90;;;;;;6201772;28;20468;-69
2021/11/05 01:01:06;;;;;;;5.30;3.13;;;8.40;99.90;;;;;;6201005;28;20469;-69
2021/11/05 01:04:11;;;;;;;3.03;2.80;;;8.40;99.90;;;;;;6201367;28;20464;-69
2021/11/05 01:07:14;;;;;;;2.87;2.57;;;8.40;99.90;;;;;;6201155;28;20481;-69
2021/11/05 01:10:17;;;;;;;3.53;2.90;;;8.40;99.90;;;;;;6201971;28;20937;-69
2021/11/05 01:13:21;;;;;;;3.60;3.30;;;8.40;99.90;;;;;;6201713;28;20477;-68
2021/11/05 01:16:24;;;;;;;3.23;2.93;;;8.50;99.90;;;;;;6201812;28;20481;-69
2021/11/05 01:19:28;;;;;;;4.40;3.00;;;8.50;99.90;;;;;;6201402;28;20907;-69
2021/11/05 01:22:32;;;;;;;6.67;3.10;;;8.50;99.90;;;;;;6201234;28;20480;-69
2021/11/05 01:25:35;;;;;;;3.30;3.00;;;8.50;99.90;;;;;;6201581;28;20480;-69
2021/11/05 01:28:38;;;;;;;3.30;2.50;;;8.50;99.90;;;;;;6201928;28;20465;-69
2021/11/05 01:31:43;;;;;;;2.90;2.70;;;8.50;99.90;;;;;;6201715;28;20483;-69
2021/11/05 01:34:48;;;;;;;2.67;2.47;;;8.50;99.90;;;;;;6201111;28;20481;-69
2021/11/05 01:37:51;;;;;;;3.60;2.90;;;8.50;99.90;;;;;;6201352;28;20495;-69
2021/11/05 01:40:54;;;;;;;3.27;2.97;;;8.40;99.90;;;;;;6201228;28;20473;-69
2021/11/05 01:43:57;;;;;;;3.07;2.70;;;8.40;99.90;;;;;;6201780;28;20472;-69
2021/11/05 01:47:01;;;;;;;3.43;2.53;;;8.50;99.90;;;;;;6202031;28;20484;-69
2021/11/05 01:50:06;;;;;;;3.10;2.50;;;8.50;99.90;;;;;;6201067;28;20480;-69
2021/11/05 01:53:10;;;;;;;2.57;2.37;;;8.60;99.90;;;;;;6196945;28;20940;-69
2021/11/05 01:56:13;;;;;;;3.30;3.00;;;8.60;99.90;;;;;;6205335;28;20960;-69
2021/11/05 01:59:27;;;;;;;2.43;2.23;;;8.70;99.90;;;;;;6205978;28;20555;-69
2021/11/05 02:02:30;;;;;;;2.40;2.30;;;8.80;99.90;;;;;;6205889;28;20825;-69
2021/11/05 02:05:35;;;;;;;2.87;2.50;;;8.70;99.90;;;;;;6206116;28;20523;-69
2021/11/05 02:08:40;;;;;;;3.70;2.77;;;8.80;99.90;;;;;;6205968;28;20432;-69
2021/11/05 02:11:47;;;;;;;3.20;2.97;;;8.80;99.90;;;;;;6205870;28;20444;-69
2021/11/05 02:14:52;;;;;;;3.43;2.50;;;8.90;99.90;;;;;;6205846;28;20471;-69
2021/11/05 02:17:55;;;;;;;3.77;3.17;;;8.80;99.90;;;;;;6205793;28;20476;-69
2021/11/05 02:21:02;;;;;;;3.40;3.07;;;8.80;99.90;;;;;;6205186;28;20484;-69
2021/11/05 02:24:07;;;;;;;6.30;4.13;;;8.80;99.90;;;;;;6206418;28;20464;-69
2021/11/05 02:27:10;;;;;;;4.63;4.17;;;8.80;99.90;;;;;;6205648;28;20957;-68
2021/11/05 02:30:13;;;;;;;5.87;5.33;;;8.80;99.90;;;;;;6205410;28;20468;-68
2021/11/05 02:33:17;;;;;;;5.10;4.70;;;8.70;99.90;;;;;;6205133;28;20477;-69
2021/11/05 02:36:20;;;;;;;4.50;4.10;;;8.70;99.90;;;;;;6205860;28;20488;-69
2021/11/05 02:39:25;;;;;;;5.00;4.50;;;8.70;99.90;;;;;;6204854;28;20477;-69
2021/11/05 02:42:28;;;;;;;4.07;3.67;;;8.60;99.90;;;;;;6204974;28;20477;-69
2021/11/05 02:45:32;;;;;;;3.70;3.40;;;8.60;99.90;;;;;;6204922;28;20495;-69
2021/11/05 02:48:35;;;;;;;4.27;3.87;;;8.60;99.90;;;;;;6205300;28;20484;-69
2021/11/05 02:51:39;;;;;;;4.33;3.93;;;8.50;99.90;;;;;;6204846;28;20483;-69
2021/11/05 02:54:44;;;;;;;4.37;3.90;;;8.50;99.90;;;;;;6204779;28;20531;-69
2021/11/05 02:57:47;;;;;;;3.50;3.30;;;8.50;99.90;;;;;;6205599;28;20477;-68
2021/11/05 03:00:51;;;;;;;4.10;3.70;;;8.50;99.90;;;;;;6204684;28;20477;-69
2021/11/05 03:03:54;;;;;;;4.77;4.27;;;8.50;99.90;;;;;;6204403;28;20800;-69
2021/11/05 03:07:00;;;;;;;2.90;2.70;;;8.50;99.90;;;;;;6203550;28;21068;-69
2021/11/05 03:10:06;;;;;;;3.20;2.90;;;8.40;99.90;;;;;;6204493;28;20845;-69
2021/11/05 03:13:09;;;;;;;2.90;2.67;;;8.40;99.90;;;;;;6204512;28;20473;-69
2021/11/05 03:16:13;;;;;;;2.67;2.37;;;8.40;99.90;;;;;;6203954;28;20834;-69
2021/11/05 03:19:16;;;;;;;3.53;2.10;;;8.40;99.90;;;;;;6204251;28;20484;-69
2021/11/05 03:22:19;;;;;;;2.77;2.57;;;8.40;99.90;;;;;;6204407;28;20472;-69
2021/11/05 03:25:24;;;;;;;3.13;2.53;;;8.40;99.90;;;;;;6204714;28;20472;-69
2021/11/05 03:28:27;;;;;;;3.00;2.53;;;8.30;99.90;;;;;;6203848;28;20815;-69
2021/11/05 03:31:30;;;;;;;2.50;2.30;;;8.30;99.90;;;;;;6204066;28;20480;-69
2021/11/05 03:34:33;;;;;;;2.80;2.60;;;8.40;99.90;;;;;;6204094;28;20469;-69
2021/11/05 03:37:37;;;;;;;3.00;2.77;;;8.30;99.90;;;;;;6203732;28;20492;-69
2021/11/05 03:40:41;;;;;;;2.50;2.30;;;8.30;99.90;;;;;;6203486;28;21035;-69
2021/11/05 03:43:45;;;;;;;1.90;1.80;;;8.30;99.90;;;;;;6204164;28;20485;-69
2021/11/05 03:46:48;;;;;;;3.00;2.30;;;8.30;99.90;;;;;;6203276;28;20477;-69
2021/11/05 03:49:51;;;;;;;2.50;2.30;;;8.30;99.90;;;;;;6203344;28;20484;-69
2021/11/05 03:52:54;;;;;;;3.00;2.80;;;8.40;99.90;;;;;;6203082;28;20472;-69
2021/11/05 03:55:59;;;;;;;3.10;2.50;;;8.40;99.90;;;;;;6203665;28;20477;-69
2021/11/05 03:59:03;;;;;;;2.43;2.23;;;8.40;99.90;;;;;;6203720;28;20531;-69
2021/11/05 04:02:06;;;;;;;2.83;2.37;;;8.40;99.90;;;;;;6203649;28;20473;-69
2021/11/05 04:05:09;;;;;;;2.80;2.10;;;8.50;99.90;;;;;;6203491;28;20484;-69
2021/11/05 04:08:12;;;;;;;2.67;2.47;;;8.60;99.90;;;;;;6203625;28;20490;-69
2021/11/05 04:11:18;;;;;;;2.57;2.37;;;8.60;99.90;;;;;;6202975;28;20483;-68
2021/11/05 04:14:21;;;;;;;5.63;2.47;;;8.70;99.90;;;;;;6203153;28;20469;-68
2021/11/05 04:17:26;;;;;;;2.87;2.23;;;8.70;99.90;;;;;;6205088;28;20487;-69
2021/11/05 04:20:29;;;;;;;2.13;1.93;;;8.80;99.90;;;;;;6182287;28;20489;-68
2021/11/05 04:23:33;;;;;;;3.20;2.00;;;8.80;99.90;;;;;;6182698;28;20901;-68
2021/11/05 04:26:38;;;;;;;2.40;2.23;;;8.80;99.90;;;;;;6182667;28;20476;-69
2021/11/05 04:29:41;;;;;;;3.77;2.60;;;8.70;99.90;;;;;;6206851;28;20452;-69
2021/11/05 04:32:44;;;;;;;2.67;2.47;;;8.80;99.90;;;;;;6206876;28;20445;-69
2021/11/05 04:35:47;;;;;;;2.10;2.00;;;8.80;99.90;;;;;;6206355;28;20470;-69
2021/11/05 04:38:51;;;;;;;5.00;2.70;;;8.90;99.90;;;;;;6205906;28;20469;-69
2021/11/05 04:41:55;;;;;;;2.53;2.03;;;8.90;99.90;;;;;;6206270;28;20952;-69
2021/11/05 04:44:58;;;;;;;2.27;2.13;;;8.90;99.90;;;;;;6205659;28;20484;-69
2021/11/05 04:48:02;;;;;;;2.83;2.47;;;8.80;99.90;;;;;;6205268;28;20469;-69
2021/11/05 04:51:05;;;;;;;2.43;2.23;;;8.80;99.90;;;;;;6205454;28;20542;-69
2021/11/05 04:54:08;;;;;;;2.13;2.00;;;8.80;99.90;;;;;;6204971;28;20556;-69
2021/11/05 04:57:13;;;;;;;2.30;2.10;;;8.80;99.90;;;;;;6205284;28;20473;-69
2021/11/05 05:00:18;;;;;;;3.03;2.20;;;8.80;99.90;;;;;;6205195;28;20488;-69
2021/11/05 05:03:21;;;;;;;2.00;1.83;;;8.80;99.90;;;;;;6200949;28;20477;-69
2021/11/05 05:06:24;;;;;;;2.90;2.40;;;8.80;99.90;;;;;;6204865;28;20488;-69
2021/11/05 05:09:27;;;;;;;2.53;2.33;;;8.90;99.90;;;;;;6203170;28;20543;-69
2021/11/05 05:12:32;;;;;;;3.00;2.20;;;8.90;99.90;;;;;;6201465;28;20991;-70
2021/11/05 05:15:35;;;;;;;3.20;2.90;;;8.90;99.90;;;;;;6202013;28;20477;-69
2021/11/05 05:18:39;;;;;;;4.47;3.17;;;8.90;99.90;;;;;;6201732;28;20472;-69
2021/11/05 05:21:42;;;;;;;3.20;2.40;;;8.90;99.90;;;;;;6201422;28;20509;-70
2021/11/05 05:24:45;;;;;;;2.73;2.53;;;8.90;99.90;;;;;;6201486;28;20484;-69
2021/11/05 05:27:50;;;;;;;3.27;2.97;;;9.00;99.90;;;;;;6201875;28;20495;-69
2021/11/05 05:30:54;;;;;;;4.23;2.63;;;9.00;99.90;;;;;;6201207;28;20476;-69
2021/11/05 05:33:57;;;;;;;3.60;2.93;;;9.00;99.90;;;;;;6201213;28;20952;-69
2021/11/05 05:37:00;;;;;;;4.13;2.90;;;8.90;99.90;;;;;;6201291;28;20855;-69
2021/11/05 05:40:04;;;;;;;3.17;2.87;;;9.00;99.90;;;;;;6201580;28;20530;-69
2021/11/05 05:43:08;;;;;;;3.53;3.00;;;9.00;99.90;;;;;;6201613;28;20476;-69
2021/11/05 05:46:12;;;;;;;2.87;2.67;;;9.10;99.90;;;;;;6201798;28;20611;-69
2021/11/05 05:49:16;;;;;;;4.83;3.20;;;9.10;99.90;;;;;;6201793;28;20817;-69
2021/11/05 05:52:19;;;;;;;4.17;3.07;;;9.10;99.90;;;;;;6201075;28;20473;-69
2021/11/05 05:55:24;;;;;;;8.03;3.43;;;9.10;99.90;;;;;;6201043;28;20481;-68
2021/11/05 05:58:30;;;;;;;4.33;3.53;;;9.00;99.90;;;;;;6201018;28;20484;-68
2021/11/05 06:01:33;;;;;;;7.40;3.30;;;9.10;99.90;;;;;;6201152;28;20487;-68
2021/11/05 06:04:37;;;;;;;3.63;3.30;;;9.10;99.90;;;;;;6201150;28;20488;-69
2021/11/05 06:07:40;;;;;;;3.73;3.37;;;9.10;99.90;;;;;;6200705;28;20477;-69
2021/11/05 06:10:44;;;;;;;5.00;3.77;;;9.10;99.90;;;;;;6196565;28;20469;-69
2021/11/05 06:13:48;;;;;;;4.47;3.30;;;9.10;99.90;;;;;;6201347;28;20481;-69
2021/11/05 06:16:52;;;;;;;4.90;3.60;;;9.10;99.90;;;;;;6201119;28;20535;-69
2021/11/05 06:19:55;;;;;;;4.60;3.70;;;9.10;99.90;;;;;;6200716;28;20483;-69
2021/11/05 06:22:58;;;;;;;8.20;4.17;;;9.10;99.90;;;;;;6201500;28;20480;-69
2021/11/05 06:26:01;;;;;;;8.47;5.27;;;9.10;99.90;;;;;;6200831;28;20826;-69
2021/11/05 06:29:06;;;;;;;5.27;4.40;;;9.10;99.90;;;;;;6201403;28;21024;-69
2021/11/05 06:32:09;;;;;;;6.43;5.43;;;9.10;99.90;;;;;;6200374;28;20476;-69
2021/11/05 06:35:13;;;;;;;5.27;3.87;;;9.10;99.90;;;;;;6200481;28;20488;-68
2021/11/05 06:38:17;;;;;;;6.20;3.60;;;9.20;99.90;;;;;;6200563;28;20483;-68
2021/11/05 06:41:20;;;;;;;7.33;4.00;;;9.20;99.90;;;;;;6201652;28;20476;-68
2021/11/05 06:44:25;;;;;;;6.07;3.47;;;9.30;99.90;;;;;;6204777;28;20811;-68
2021/11/05 06:47:28;;;;;;;3.63;3.30;;;9.30;99.90;;;;;;6204577;28;20623;-68
2021/11/05 06:50:31;;;;;;;4.33;3.50;;;9.40;99.90;;;;;;6204641;28;20452;-67
2021/11/05 06:53:35;;;;;;;7.30;4.17;;;9.40;99.90;;;;;;6206042;28;20448;-68
2021/11/05 06:56:38;;;;;;;4.50;3.93;;;9.40;99.90;;;;;;6205279;28;20460;-68
2021/11/05 06:59:43;;;;;;;5.70;3.63;;;9.40;99.90;;;;;;6205331;28;20565;-67
2021/11/05 07:02:46;;;;;;;3.93;2.97;;;9.50;99.90;;;;;;6205307;28;20499;-68
2021/11/05 07:05:49;;;;;;;3.23;2.50;;;9.60;99.90;;;;;;6205343;28;20551;-67
2021/11/05 07:08:52;;;;;;;4.00;3.50;;;9.70;99.90;;;;;;6204995;28;20567;-67
2021/11/05 07:11:55;;;;;;;4.33;3.23;;;9.70;99.90;;;;;;6195327;28;20792;-68
2021/11/05 07:15:00;;;;;;;3.00;2.70;;;9.70;99.90;;;;;;6204675;28;20488;-68
2021/11/05 07:18:03;;;;;;;4.80;3.50;;;9.80;99.90;;;;;;6204808;28;20809;-68
2021/11/05 07:21:07;;;;;;;4.37;3.57;;;9.80;99.90;;;;;;6204218;28;20488;-69
2021/11/05 07:24:10;;;;;;;6.87;3.63;;;9.80;99.90;;;;;;6204814;28;20531;-67
2021/11/05 07:27:14;;;;;;;5.03;2.87;;;9.90;99.90;;;;;;6204108;28;21010;-69
2021/11/05 07:30:19;;;;;;;6.13;3.57;;;10.00;99.90;;;;;;6203937;28;20476;-67
2021/11/05 07:33:23;;;;;;;8.53;2.90;;;10.20;99.80;;;;;;6204646;28;20488;-67
2021/11/05 07:36:27;;;;;;;3.90;3.23;;;10.50;99.30;;;;;;6204155;28;20481;-68
2021/11/05 07:39:31;;;;;;;4.50;2.80;;;10.80;98.50;;;;;;6203918;28;20492;-68
2021/11/05 07:42:34;;;;;;;6.10;3.50;;;11.10;98.20;;;;;;6203928;28;20472;-67
2021/11/05 07:45:39;;;;;;;4.27;2.77;;;11.40;97.30;;;;;;6204220;28;20499;-67
2021/11/05 07:48:42;;;;;;;5.00;3.23;;;11.60;96.80;;;;;;6203449;28;20477;-67
2021/11/05 07:51:46;;;;;;;11.93;3.60;;;11.70;96.00;;;;;;6203293;28;20477;-67
2021/11/05 07:54:50;;;;;;;5.80;2.50;;;11.70;95.30;;;;;;6203541;28;20464;-67
2021/11/05 07:57:58;;;;;;;4.17;3.10;;;11.60;95.20;;;;;;6203647;28;20476;-68
2021/11/05 08:01:03;;;;;;;5.13;2.87;;;11.70;95.40;;;;;;6203037;28;20816;-68
2021/11/05 08:04:07;;;;;;;5.53;3.07;;;11.60;94.50;;;;;;6203598;28;20504;-67
2021/11/05 08:07:11;;;;;;;5.33;3.30;;;11.70;94.80;;;;;;6202902;28;20813;-67
2021/11/05 08:10:20;;;;;;;7.33;3.60;;;11.90;94.90;;;;;;6203052;28;20489;-67
2021/11/05 08:13:25;;;;;;;5.70;2.70;;;12.10;94.50;;;;;;6203731;28;20980;-67
2021/11/05 08:16:29;;;;;;;4.40;3.20;;;12.40;93.90;;;;;;6198540;28;20473;-67
2021/11/05 08:19:33;;;;;;;4.73;3.40;;;12.70;93.00;;;;;;6203169;28;20837;-67
2021/11/05 08:22:36;;;;;;;3.73;3.00;;;13.00;92.40;;;;;;6202197;28;20480;-67
2021/11/05 08:25:40;;;;;;;5.40;2.97;;;13.20;91.80;;;;;;6202618;28;20481;-67
2021/11/05 08:28:44;;;;;;;3.37;3.03;;;13.70;90.80;;;;;;6202811;28;20980;-67
2021/11/05 08:31:49;;;;;;;5.83;3.17;;;14.10;89.00;;;;;;6202910;28;20530;-67
2021/11/05 08:34:52;;;;;;;3.00;2.37;;;14.20;87.70;;;;;;6202322;28;20481;-68
2021/11/05 08:37:56;;;;;;;9.00;3.33;;;14.10;86.50;;;;;;6179479;23;20473;-68
2021/11/05 08:40:59;;;;;;;2.60;2.40;;;13.90;85.60;;;;;;6177707;28;20478;-68
2021/11/05 08:44:03;;;;;;;4.57;2.70;;;13.80;85.20;;;;;;6177535;28;20473;-67
2021/11/05 08:47:08;;;;;;;3.53;2.70;;;13.80;84.80;;;;;;6177817;28;20831;-67
2021/11/05 08:50:15;;;;;;;5.20;2.67;;;13.90;84.30;;;;;;6177685;28;20973;-67
2021/11/05 08:53:19;;;;;;;4.10;3.13;;;14.00;83.70;;;;;;6177832;28;20477;-68
2021/11/05 08:56:22;;;;;;;3.37;2.10;;;13.90;82.80;;;;;;6177397;28;21000;-69
2021/11/05 08:59:26;;;;;;;2.37;2.17;;;13.80;82.30;;;;;;6177915;28;20797;-68
2021/11/05 09:02:32;;;;;;;6.70;3.57;;;13.60;81.20;;;;;;6177477;28;20481;-69
2021/11/05 09:05:36;;;;;;;8.37;2.93;;;13.40;82.00;;;;;;6177366;28;20457;-69
2021/11/05 09:08:43;;;;;;;9.60;5.50;;;13.20;83.20;;;;;;6177774;28;20458;-68
2021/11/05 09:11:49;;;;;;;12.73;6.17;;;12.80;90.50;;;;;;6177772;28;20462;-68
2021/11/05 09:14:52;;;;;;;7.93;6.27;;;11.90;93.80;;;;;;6177396;28;20468;-67
2021/11/05 09:17:59;;;;;;;11.80;6.90;;;11.60;94.90;;;;;;6168587;28;20481;-67
2021/11/05 09:21:04;;;;;;;7.13;6.37;;;11.40;95.70;;;;;;6177295;28;20474;-67
2021/11/05 09:24:07;;;;;;;13.00;6.90;;;11.10;96.00;;;;;;6176897;28;20512;-66
2021/11/05 09:27:12;;;;;;;14.30;7.63;;;10.90;96.90;;;;;;6177227;28;20477;-69
2021/11/05 09:30:17;;;;;;;9.50;7.00;;;10.80;97.40;;;;;;6177244;28;20772;-68
2021/11/05 09:33:22;;;;;;;5.93;5.23;;;10.70;97.80;;;;;;6177360;28;20556;-67
2021/11/05 09:36:25;;;;;;;9.17;5.27;;;10.50;98.20;;;;;;6176843;28;20953;-66
2021/11/05 09:39:30;;;;;;;6.83;5.47;;;10.50;98.40;;;;;;6152841;28;20477;-69
2021/11/05 09:42:34;;;;;;;6.93;4.30;;;10.60;98.60;;;;;;6152770;28;20974;-67
2021/11/05 09:45:37;;;;;;;5.70;5.10;;;10.70;98.40;;;;;;6168877;28;20477;-67
2021/11/05 09:48:43;;;;;;;5.80;4.23;;;10.60;98.10;;;;;;6176759;28;20469;-67
2021/11/05 09:51:46;;;;;;;6.73;5.20;;;10.60;98.00;;;;;;6176652;28;20477;-66
2021/11/05 09:54:51;;;;;;;7.40;4.00;;;10.50;98.30;;;;;;6177272;28;20476;-66
2021/11/05 09:57:55;;;;;;;4.73;4.23;;;10.50;98.30;;;;;;6177020;28;20470;-66
2021/11/05 10:00:58;;;;;;;10.87;5.47;;;10.60;98.60;;;;;;6176701;28;20832;-68
2021/11/05 10:04:03;;;;;;;6.80;4.40;;;10.60;98.90;;;;;;6176450;28;20478;-67
2021/11/05 10:07:09;;;;;;;8.03;4.73;;;10.70;99.10;;;;;;6174984;28;20478;-66
2021/11/05 10:10:12;;;;;;;6.33;4.97;;;10.70;98.90;;;;;;6176054;28;20494;-66
2021/11/05 10:13:22;;;;;;;6.70;4.33;;;10.80;98.60;;;;;;6176577;28;20462;-66
2021/11/05 10:16:27;;;;;;;4.67;3.93;;;11.00;98.70;;;;;;6178956;28;20809;-66
2021/11/05 10:19:54;;;;;;;4.77;3.93;;;11.00;98.50;;;;;;6180786;28;20647;-66
2021/11/05 10:23:03;;;;;;;5.63;3.57;;;11.10;97.90;;;;;;6176432;28;20481;-66
2021/11/05 10:26:07;;;;;;;5.40;3.77;;;11.20;97.90;;;;;;6180605;28;20976;-66
2021/11/05 10:29:26;;;;;;;3.80;3.40;;;11.50;97.80;;;;;;6180620;28;20974;-66
2021/11/05 10:32:29;;;;;;;3.63;2.63;;;11.70;97.30;;;;;;6180762;28;20817;-65
2021/11/05 10:35:34;;;;;;;3.70;3.30;;;11.90;96.80;;;;;;6180307;28;20473;-65
2021/11/05 10:38:40;;;;;;;4.20;3.00;;;12.00;96.30;;;;;;6181223;28;20436;-65
2021/11/05 10:41:43;;;;;;;6.13;3.43;;;11.90;96.60;;;;;;6180573;28;20517;-66
2021/11/05 10:45:12;;;;;;;7.13;3.80;;;12.00;96.40;;;;;;6180514;28;20469;-66
2021/11/05 10:48:17;;;;;;;7.47;3.90;;;12.00;96.70;;;;;;6180795;28;20474;-66
2021/11/05 10:51:23;;;;;;;4.97;3.40;;;12.10;96.40;;;;;;6179983;28;20489;-66
2021/11/05 10:54:26;;;;;;;3.53;3.23;;;12.20;96.30;;;;;;6180068;28;20510;-66
2021/11/05 10:57:40;;;;;;;7.63;2.90;;;12.40;96.00;;;;;;6180095;28;20870;-65
2021/11/05 11:00:45;;;;;;;7.93;4.73;;;13.00;95.50;;;;;;6180402;28;20474;-65
2021/11/05 11:03:50;;;;;;;3.43;3.07;;;13.30;94.50;;;;;;6180438;28;20497;-65
2021/11/05 11:06:55;;;;;;;4.37;3.23;;;13.40;94.10;;;;;;6180166;28;20485;-65
2021/11/05 11:09:58;;;;;;;6.50;3.13;;;13.50;93.60;;;;;;6179665;28;20819;-65
2021/11/05 11:13:01;;;;;;;4.27;2.90;;;13.50;93.20;;;;;;6179955;28;20473;-65
2021/11/05 11:16:11;;;;;;;5.67;3.43;;;13.30;93.10;;;;;;6179355;28;20554;-65
2021/11/05 11:19:16;;;;;;;3.90;3.57;;;13.20;93.30;;;;;;6179639;28;20477;-66
2021/11/05 11:22:20;;;;;;;6.20;4.27;;;13.10;93.60;;;;;;6180052;28;20469;-65
2021/11/05 11:25:23;;;;;;;5.30;3.20;;;12.80;94.30;;;;;;6179662;28;20476;-66
2021/11/05 11:28:26;;;;;;;4.67;3.10;;;12.70;94.60;;;;;;6179114;28;20474;-66
2021/11/05 11:31:31;;;;;;;5.17;3.70;;;12.70;95.00;;;;;;6179435;28;20473;-66
2021/11/05 11:34:34;;;;;;;6.63;4.30;;;12.70;95.20;;;;;;6179437;28;20469;-68
2021/11/05 11:37:38;;;;;;;5.03;3.67;;;12.80;94.60;;;;;;6178868;28;20481;-67
2021/11/05 11:40:42;;;;;;;5.40;3.90;;;12.70;95.30;;;;;;6178967;28;20992;-68
2021/11/05 11:43:46;;;;;;;4.37;3.97;;;13.00;95.00;;;;;;6179255;28;20489;-66
2021/11/05 11:46:56;;;;;;;4.43;4.03;;;13.30;94.30;;;;;;6178607;28;20800;-67
2021/11/05 11:50:00;;;;;;;5.30;3.83;;;13.70;93.80;;;;;;6179207;28;20829;-68
2021/11/05 11:53:05;;;;;;;8.50;3.93;;;13.80;92.60;;;;;;6178928;28;20477;-66
2021/11/05 11:56:08;;;;;;;9.77;4.70;;;13.90;92.50;;;;;;6178943;28;20489;-68
2021/11/05 11:59:13;;;;;;;5.60;3.80;;;14.00;92.20;;;;;;6178851;28;20485;-70
2021/11/05 12:02:35;;;;;;;5.20;4.37;;;14.10;91.60;;;;;;6178669;28;20488;-69
2021/11/05 12:05:48;;;;;;;6.80;4.10;;;14.50;90.70;;;;;;6178518;28;20485;-69
2021/11/05 12:08:51;;;;;;;5.73;4.40;;;15.40;89.60;;;;;;6178464;28;22293;-69
2021/11/05 12:12:31;;;;;;;5.00;3.43;;;17.60;84.70;;;;;;6178718;28;20481;-69
2021/11/05 12:15:34;;;;;;;6.40;4.20;;;21.30;64.80;;;;;;6178322;28;20546;-70
2021/11/05 12:19:07;;;;;;;6.60;3.50;;;20.80;59.90;;;;;;6178726;28;20238;-68
2021/11/05 12:22:13;;;;;;;7.17;3.60;;;19.60;60.20;;;;;;6178585;28;20230;-70
2021/11/05 12:25:19;;;;;;;5.33;3.33;;;18.20;63.50;;;;;;6178272;28;20706;-69
2021/11/05 12:28:25;;;;;;;5.33;3.40;;;17.20;67.50;;;;;;6178588;28;20488;-68
2021/11/05 12:31:31;;;;;;;3.83;3.53;;;17.00;69.30;;;;;;6169711;28;20484;-68
2021/11/05 12:34:36;;;;;;;2.90;2.60;;;17.80;69.70;;;;;;6178142;28;20980;-67
2021/11/05 12:37:42;;;;;;;4.13;3.30;;;21.20;61.10;;;;;;6177975;28;20238;-69
2021/11/05 12:41:04;;;;;;;4.10;3.47;;;24.60;52.10;;;;;;6177649;28;20247;-69
2021/11/05 12:44:13;;;;;;;3.80;3.40;;;28.40;42.10;;;;;;6177920;28;20230;-69
2021/11/05 12:47:16;;;;;;;3.77;3.10;;;30.30;36.00;;;;;;6177777;28;20670;-69
2021/11/05 12:50:23;;;;;;;7.40;4.17;;;29.50;33.90;;;;;;6176897;28;20545;-70
2021/11/05 12:53:26;;;;;;;4.50;3.73;;;29.50;33.70;;;;;;6176287;28;20229;-68
2021/11/05 12:56:30;;;;;;;5.60;3.40;;;30.80;32.00;;;;;;6175355;28;20261;-69
2021/11/05 12:59:35;;;;;;;4.17;3.27;;;31.70;29.90;;;;;;6174923;28;20661;-69
2021/11/05 13:02:38;;;;;;;5.30;3.80;;;32.10;28.90;;;;;;6175359;28;20221;-69
2021/11/05 13:05:52;;;;;;;4.57;3.40;;;30.60;29.40;;;;;;6175077;28;20237;-69
2021/11/05 13:08:55;;;;;;;4.07;3.53;;;28.50;31.70;;;;;;6175444;28;20234;-69
2021/11/05 13:12:01;;;;;;;6.03;3.50;;;26.90;33.90;;;;;;6175541;28;20249;-68
2021/11/05 13:15:05;;;;;;;4.23;3.10;;;24.80;36.90;;;;;;6176844;28;20241;-68
2021/11/05 13:18:10;;;;;;;4.93;3.40;;;22.00;41.60;;;;;;6176831;28;20229;-68
2021/11/05 13:21:20;;;;;;;3.40;3.10;;;20.80;44.80;;;;;;6177301;28;20612;-69
2021/11/05 13:24:23;;;;;;;4.30;3.90;;;20.40;45.70;;;;;;6175591;28;20565;-69
2021/11/05 13:27:27;;;;;;;3.97;3.47;;;19.50;47.40;;;;;;6176929;28;20225;-68
2021/11/05 13:30:33;;;;;;;5.53;3.87;;;18.30;50.40;;;;;;6177247;28;20230;-68
2021/11/05 13:33:37;;;;;;;7.30;3.50;;;18.10;52.30;;;;;;6172530;28;20350;-68
2021/11/05 13:36:42;;;;;;;8.03;3.20;;;18.60;52.20;;;;;;6177074;28;20253;-68
2021/11/05 13:39:45;;;;;;;7.53;2.83;;;18.70;51.50;;;;;;6176981;28;20477;-70
2021/11/05 13:42:48;;;;;;;4.70;2.77;;;18.30;52.00;;;;;;6153276;28;20241;-68
2021/11/05 13:45:54;;;;;;;3.97;2.43;;;17.90;53.00;;;;;;6170987;28;20481;-68
2021/11/05 13:49:01;;;;;;;3.40;2.30;;;17.00;55.20;;;;;;6177135;28;20477;-68
2021/11/05 13:52:09;;;;;;;2.80;2.50;;;16.50;56.80;;;;;;6181126;28;20488;-68
2021/11/05 13:55:12;;;;;;;3.07;2.70;;;16.00;57.80;;;;;;6182088;28;20485;-70
2021/11/05 13:58:25;;;;;;;3.10;2.73;;;15.60;59.20;;;;;;6182512;28;20797;-69
2021/11/05 14:01:31;;;;;;;2.40;2.20;;;14.90;61.70;;;;;;6183575;28;20469;-67
2021/11/05 14:04:34;;;;;;;4.50;2.53;;;14.50;64.60;;;;;;6181807;28;20492;-67
2021/11/05 14:07:39;;;;;;;3.03;2.73;;;14.20;66.00;;;;;;6181309;28;20488;-67
2021/11/05 14:10:54;;;;;;;2.63;2.30;;;14.10;67.40;;;;;;6181634;28;20480;-68
2021/11/05 14:13:58;;;;;;;4.20;3.00;;;13.80;69.40;;;;;;6181641;28;20470;-68
2021/11/05 14:17:03;;;;;;;3.63;2.90;;;13.50;71.10;;;;;;6181083;28;20973;-68
2021/11/05 14:20:07;;;;;;;5.00;3.57;;;13.30;73.20;;;;;;6181402;28;20469;-68
2021/11/05 14:23:29;;;;;;;5.83;3.10;;;13.30;74.70;;;;;;6181142;28;20496;-68
2021/11/05 14:26:33;;;;;;;5.20;3.00;;;13.20;76.00;;;;;;6180367;28;20482;-67
2021/11/05 14:29:37;;;;;;;4.70;3.50;;;13.10;77.70;;;;;;6180014;28;20445;-67
2021/11/05 14:32:43;;;;;;;5.70;4.60;;;13.10;78.90;;;;;;6180003;28;20446;-67
2021/11/05 14:35:50;;;;;;;7.30;3.60;;;13.00;80.50;;;;;;6179271;28;20608;-68
2021/11/05 14:38:57;;;;;;;6.50;3.03;;;13.00;81.10;;;;;;6175596;28;20486;-68
2021/11/05 14:42:01;;;;;;;3.83;2.70;;;13.00;80.80;;;;;;6180010;28;20470;-67
2021/11/05 14:45:17;;;;;;;3.97;3.00;;;12.90;81.00;;;;;;6180274;28;20803;-68
2021/11/05 14:48:22;;;;;;;2.93;2.57;;;12.90;81.50;;;;;;6179766;28;20504;-68
2021/11/05 14:51:26;;;;;;;3.50;3.00;;;12.70;82.30;;;;;;6180704;28;20488;-67
2021/11/05 14:54:30;;;;;;;2.80;2.60;;;12.70;83.20;;;;;;6181566;28;20473;-67
2021/11/05 14:57:41;;;;;;;2.83;2.53;;;12.60;83.80;;;;;;6182256;28;20492;-67
2021/11/05 15:00:48;;;;;;;2.80;2.60;;;12.60;84.50;;;;;;6181403;28;20492;-68
2021/11/05 15:03:53;;;;;;;5.43;2.60;;;12.60;85.40;;;;;;6179616;28;20478;-67
2021/11/05 15:06:56;;;;;;;3.40;2.90;;;12.60;85.80;;;;;;6179584;28;20470;-67
2021/11/05 15:10:01;;;;;;;3.50;3.20;;;12.50;86.50;;;;;;6179706;28;20989;-67
2021/11/05 15:13:06;;;;;;;4.70;2.37;;;12.50;87.30;;;;;;6180956;28;20484;-68
2021/11/05 15:16:12;;;;;;;4.00;2.20;;;12.40;87.40;;;;;;6180621;28;20478;-68
2021/11/05 15:19:16;;;;;;;5.60;2.70;;;12.30;88.30;;;;;;6180642;28;20470;-68
2021/11/05 15:22:20;;;;;;;3.73;3.00;;;12.20;89.10;;;;;;6179919;28;20473;-68
2021/11/05 15:25:25;;;;;;;2.90;2.70;;;12.10;90.00;;;;;;6179518;28;20493;-69
2021/11/05 15:28:29;;;;;;;4.03;3.73;;;12.10;90.20;;;;;;6179969;28;20545;-69
2021/11/05 15:31:32;;;;;;;4.63;3.50;;;12.00;90.60;;;;;;6179989;28;20956;-69
2021/11/05 15:34:39;;;;;;;14.73;4.93;;;12.00;90.70;;;;;;6179990;28;20474;-69
2021/11/05 15:37:42;;;;;;;5.53;3.63;;;11.90;91.10;;;;;;6179831;28;20953;-68
2021/11/05 15:40:50;;;;;;;3.47;3.17;;;11.80;91.30;;;;;;6179477;28;20473;-68
2021/11/05 15:43:53;;;;;;;2.90;2.70;;;11.80;91.40;;;;;;6170167;28;20969;-68
2021/11/05 15:46:56;;;;;;;3.93;3.40;;;11.70;91.70;;;;;;6178910;28;20485;-68
2021/11/05 15:50:00;;;;;;;5.13;3.73;;;11.60;91.90;;;;;;6179486;28;20965;-68
2021/11/05 15:53:05;;;;;;;3.63;3.33;;;11.50;92.10;;;;;;6179012;28;20465;-67
2021/11/05 15:56:12;;;;;;;3.93;3.57;;;11.50;92.40;;;;;;6179318;28;20962;-68
2021/11/05 15:59:16;;;;;;;4.70;3.30;;;11.40;92.80;;;;;;6178965;28;20469;-68
2021/11/05 16:02:19;;;;;;;3.80;3.40;;;11.30;92.90;;;;;;6179062;28;20484;-68
2021/11/05 16:05:22;;;;;;;9.43;3.67;;;11.30;93.50;;;;;;6178512;28;20855;-67
2021/11/05 16:08:26;;;;;;;6.50;4.73;;;11.20;93.70;;;;;;6178853;28;20473;-68